首页
METAR-TAF:

METAR-TAF

机场 :

多倫多皮爾遜國際機場

多伦多, 安大略省, 加拿大

纬度: 43-40N, 经度: 079-38W, 海拔: 173米

当前天气观测

该预报发布于18分钟前的16:13 UTC
风速16节,风向西转西北
温度 26°C
湿度 65%
气压 1010 hPa
能見度: 24.1公里
散云层高于3000英尺
多云层高于5500英尺
多云层高于26000英尺

METAR: CYYZ 111613Z 30016KT 15SM SCT030 BKN055 BKN260 26/19 A2983 RMK SC3SC2CI1 WSHFT 1601 SLP098 DENSITY ALT 2100FT

时间: 12:31 (16:31 UTC)

预报

该预报发布于13分钟前的16:18 UTC
预报有效从11日的 16点(UTC)到 12日的 18点(UTC)
风速15节,风向西转西北,有时为25节阵风
能見度: 10公里
散云层高于3000英尺
多云层高于5000英尺
短暂存在
从 11日的 16点(UTC)到 11日的 17点(UTC)
能見度: 10公里
多云层高于3000英尺, 积雨云.
附近有雷暴
从 11日的 1700点(UTC)
风速15节,风向西,有时为25节阵风
能見度: 10公里
散云层高于3000英尺
短暂存在
从 11日的 17点(UTC)到 11日的 19点(UTC)
能見度: 10公里
多云层高于3000英尺
小阵雨
几率 30%
从 11日的 18点(UTC)到 11日的 19点(UTC)
风速20节,风向多变,有时为30节阵风
能見度: 3.2公里
多云层高于4000英尺, 积雨云.
雷暴, 雨, 轻雾
从 11日的 1900点(UTC)
风速15节,风向西,有时为25节阵风
能見度: 10公里
多云层高于3000英尺
从 11日的 2200点(UTC)
风速12节,风向西北,有时为22节阵风
能見度: 10公里
散云层高于4000英尺
从 12日的 0100点(UTC)
风速8节,风向西北
能見度: 10公里
少量云层高于4000英尺
成为
从 12日的 12点(UTC)到 12日的 14点(UTC)
风速8节,风向西转西南

TAF: CYYZ 111618Z 1116/1218 29015G25KT P6SM SCT030 BKN050 TEMPO 1116/1117 P6SM VCTS BKN030CB FM111700 28015G25KT P6SM SCT030 TEMPO 1117/1119 P6SM -SHRA BKN030 PROB30 1118/1119 VRB20G30KT 2SM TSRA BR BKN040CB FM111900 28015G25KT P6SM BKN030 FM112200 32012G22KT P6SM SCT040 FM120100 32008KT P6SM FEW040 BECMG 1212/1214 24008KT RMK NXT FCST BY 111800Z

超过4000个机场的气象观测和天气预报(METAR&TAF报告)。

可查询的气象台以黄色和红色小点在地图上表示。

将鼠标移到小点上方,可查看气象台名称。

然后点击查看天气观测和预报。

如需切换地图:点击带黑十字的绿色按钮放大地图;点击带横线的绿色按钮缩小地图;或者点击绿色箭头查看邻近地区的地图。


METAR-TAF: